Time;durP1;ratioP1;P1;durP2;ratioP2;P2;SDS_P1;SDS_P2;PMS_P1;PMS_P2;Temp;Humidity;BMP_temperature;BMP_pressure;BME280_temperature;BME280_humidity;BME280_pressure;Samples;Min_cycle;Max_cycle;Signal;HPM_P1;HPM_P2
2023/07/05 00:00:27;;;;;;;12.95;4.80;;;;;;;14.42;100.00;100757.88;10118831;29;20056;-90
2023/07/05 00:05:28;;;;;;;12.88;5.43;;;;;;;13.20;100.00;100521.94;10095031;29;20052;-90
2023/07/05 00:10:29;;;;;;;10.07;5.25;;;;;;;13.48;100.00;100578.56;10081620;29;20051;-86
2023/07/05 00:15:30;;;;;;;14.20;5.15;;;;;;;14.00;100.00;100645.63;10072249;29;20044;-91
2023/07/05 00:20:31;;;;;;;10.57;5.40;;;;;;;13.61;100.00;100571.63;10118250;29;20036;-91
2023/07/05 00:25:31;;;;;;;10.55;5.22;;;;;;;12.97;100.00;100491.03;10086563;29;20076;-86
2023/07/05 00:30:32;;;;;;;10.40;5.28;;;;;;;12.72;100.00;100426.44;10101927;29;20101;-85
2023/07/05 00:35:32;;;;;;;12.27;5.00;;;;;;;13.50;100.00;100535.69;10097653;29;20032;-87
2023/07/05 00:40:33;;;;;;;17.35;6.32;;;;;;;13.19;100.00;100467.75;10098074;29;20048;-85
2023/07/05 00:45:41;;;;;;;8.75;5.85;;;;;;;14.40;100.00;100599.44;10098476;29;20105;-87
2023/07/05 00:50:45;;;;;;;10.48;6.25;;;;;;;13.39;100.00;100415.16;10121586;29;20044;-93
2023/07/05 00:55:50;;;;;;;12.52;6.28;;;;;;;13.59;100.00;100435.53;10121029;29;20386;-92
2023/07/05 01:00:51;;;;;;;9.25;6.30;;;;;;;13.47;100.00;100444.16;10099735;29;20045;-92
2023/07/05 01:05:55;;;;;;;15.15;7.97;;;;;;;12.50;100.00;100304.44;10128856;29;20029;-91
2023/07/05 01:11:04;;;;;;;12.38;8.13;;;;;;;12.79;100.00;100310.13;10076964;29;20057;-88
2023/07/05 01:16:30;;;;;;;13.10;7.93;;;;;;;13.99;100.00;100473.19;10113594;29;20093;-87
2023/07/05 01:21:43;;;;;;;16.65;7.85;;;;;;;13.13;100.00;100370.22;10098991;29;20040;-92
2023/07/05 01:27:14;;;;;;;14.88;7.93;;;;;;;14.33;100.00;100517.53;10164146;29;20052;-93
2023/07/05 01:32:31;;;;;;;12.65;8.48;;;;;;;14.11;100.00;100478.38;10122150;29;20031;-93
2023/07/05 01:37:32;;;;;;;20.02;9.10;;;;;;;14.33;100.00;100491.78;10101579;29;20052;-93
2023/07/05 01:42:33;;;;;;;11.85;7.93;;;;;;;14.18;100.00;100492.72;10118531;29;20053;-88
2023/07/05 01:47:39;;;;;;;16.08;9.48;;;;;;;13.56;100.00;100370.56;10092714;29;20032;-94
2023/07/05 01:53:29;;;;;;;16.33;8.25;;;;;;;13.43;100.00;100327.75;10141378;29;20020;-92
2023/07/05 01:58:30;;;;;;;19.63;9.63;;;;;;;13.08;100.00;100290.94;10101222;29;20055;-91
2023/07/05 02:03:31;;;;;;;12.75;8.45;;;;;;;14.27;100.00;100479.09;10110517;29;20065;-91
2023/07/05 02:08:35;;;;;;;16.35;9.27;;;;;;;12.74;100.00;100232.81;10108433;29;20029;-91
2023/07/05 02:13:36;;;;;;;20.83;9.30;;;;;;;13.41;100.00;100309.81;10104825;29;20041;-90
2023/07/05 02:18:37;;;;;;;19.77;9.90;;;;;;;12.56;100.00;100181.81;10110056;29;20110;-86
2023/07/05 02:23:37;;;;;;;21.35;11.60;;;;;;;13.00;100.00;100258.38;10091887;29;20029;-87
2023/07/05 02:28:38;;;;;;;22.88;11.18;;;;;;;12.81;100.00;100224.22;10092923;29;20112;-86
2023/07/05 02:33:39;;;;;;;16.27;10.18;;;;;;;12.57;100.00;100166.91;10075699;29;20423;-87
2023/07/05 02:38:40;;;;;;;20.85;11.80;;;;;;;12.24;100.00;100099.47;10106101;29;20041;-88
2023/07/05 02:43:41;;;;;;;20.42;11.80;;;;;;;12.84;100.00;100180.28;10119826;29;20408;-89
2023/07/05 02:48:41;;;;;;;23.40;11.82;;;;;;;12.87;100.00;100204.56;10090701;29;20509;-86
2023/07/05 02:53:42;;;;;;;21.20;10.70;;;;;;;12.39;100.00;100104.91;10076815;29;20029;-86
2023/07/05 02:58:43;;;;;;;22.70;11.43;;;;;;;12.69;100.00;100114.94;10096087;29;20040;-90
2023/07/05 03:03:43;;;;;;;20.63;12.05;;;;;;;13.69;100.00;100291.63;10077379;29;20131;-91
2023/07/05 03:08:44;;;;;;;26.15;12.73;;;;;;;12.36;100.00;100024.59;10076757;29;20051;-88
2023/07/05 03:13:46;;;;;;;20.30;12.90;;;;;;;12.08;100.00;99977.31;10076307;29;20529;-89
2023/07/05 03:18:46;;;;;;;20.63;11.35;;;;;;;12.59;100.00;100036.84;10092095;29;20044;-88
2023/07/05 03:23:47;;;;;;;23.23;12.13;;;;;;;13.03;100.00;100125.16;10122295;29;20481;-89
2023/07/05 03:28:47;;;;;;;20.45;11.55;;;;;;;12.50;100.00;100025.59;10090097;29;20061;-87
2023/07/05 03:33:48;;;;;;;21.13;11.32;;;;;;;11.46;100.00;99834.31;10091494;29;20032;-90
2023/07/05 03:38:50;;;;;;;19.90;11.48;;;;;;;12.15;100.00;99932.84;10079207;29;20041;-87
2023/07/05 03:43:57;;;;;;;27.23;12.85;;;;;;;13.64;100.00;100156.13;10091224;29;20044;-88
2023/07/05 03:48:58;;;;;;;20.25;11.23;;;;;;;11.82;100.00;99888.38;10109166;29;20112;-91
2023/07/05 03:53:59;;;;;;;24.88;13.13;;;;;;;12.37;100.00;99947.03;10053148;29;20036;-90
2023/07/05 03:58:59;;;;;;;21.40;12.00;;;;;;;12.54;100.00;99943.00;10090031;29;20052;-88
2023/07/05 04:04:01;;;;;;;24.42;12.32;;;;;;;11.97;100.00;99868.16;10093174;29;20029;-88
2023/07/05 04:09:01;;;;;;;21.95;12.90;;;;;;;12.65;100.00;99952.84;10093412;29;20202;-88
2023/07/05 04:14:02;;;;;;;23.70;13.40;;;;;;;12.56;100.00;99911.22;10069408;29;20647;-89
2023/07/05 04:19:03;;;;;;;22.77;11.98;;;;;;;12.69;100.00;99938.19;10098543;29;20055;-88
2023/07/05 04:24:04;;;;;;;20.20;11.25;;;;;;;12.61;100.00;99897.38;10093525;29;20037;-88
2023/07/05 04:29:05;;;;;;;18.80;11.85;;;;;;;13.35;100.00;100057.44;10090194;29;20043;-91
2023/07/05 04:34:06;;;;;;;19.80;12.63;;;;;;;12.16;100.00;99841.50;10089693;29;20040;-89
2023/07/05 04:39:06;;;;;;;17.92;9.52;;;;;;;12.66;100.00;99918.59;10093434;29;20053;-88
2023/07/05 04:44:09;;;;;;;19.52;10.32;;;;;;;12.85;100.00;99952.63;10090004;29;20055;-90
2023/07/05 04:49:10;;;;;;;14.52;10.63;;;;;;;13.00;100.00;99968.25;10066356;29;20105;-92
2023/07/05 04:54:10;;;;;;;23.55;11.82;;;;;;;13.05;100.00;99935.03;10063016;29;20040;-88
2023/07/05 04:59:11;;;;;;;13.48;8.20;;;;;;;13.03;100.00;99951.06;10080065;29;20104;-89
2023/07/05 05:04:12;;;;;;;11.10;7.45;;;;;;;13.28;100.00;99933.38;10042800;29;20033;-89
2023/07/05 05:09:12;;;;;;;12.93;7.40;;;;;;;13.59;100.00;99981.97;10062135;29;20028;-92
2023/07/05 05:14:13;;;;;;;12.40;6.88;;;;;;;13.11;100.00;99881.34;10036082;29;20042;-90
2023/07/05 05:19:13;;;;;;;11.43;6.13;;;;;;;13.95;100.00;100050.66;10060977;29;20112;-92
2023/07/05 05:24:14;;;;;;;8.25;5.10;;;;;;;13.76;100.00;100006.34;10054006;29;20057;-87
2023/07/05 05:29:15;;;;;;;7.20;4.15;;;;;;;12.31;100.00;99805.47;10041920;29;20597;-88
2023/07/05 05:34:16;;;;;;;6.50;3.92;;;;;;;13.10;100.00;99956.25;10112148;29;20025;-87
2023/07/05 05:39:16;;;;;;;6.75;3.30;;;;;;;13.18;100.00;100021.09;10078374;29;20060;-88
2023/07/05 05:44:20;;;;;;;5.65;3.15;;;;;;;12.30;100.00;99907.91;10096364;29;20044;-92
2023/07/05 05:49:21;;;;;;;3.92;3.35;;;;;;;12.78;100.00;100001.06;10095850;29;20044;-87
2023/07/05 05:54:21;;;;;;;5.03;3.20;;;;;;;13.12;100.00;100043.28;10114263;29;20055;-87
2023/07/05 05:59:22;;;;;;;6.45;3.33;;;;;;;12.12;100.00;99879.06;10046656;29;20068;-92
2023/07/05 06:04:22;;;;;;;4.07;2.88;;;;;;;13.07;100.00;100070.94;10098178;29;20044;-92
2023/07/05 06:09:26;;;;;;;7.78;4.07;;;;;;;12.69;100.00;99960.28;10090725;29;20443;-93
2023/07/05 06:14:27;;;;;;;9.07;4.30;;;;;;;13.39;100.00;100000.44;10085344;29;20033;-87
2023/07/05 06:19:28;;;;;;;5.70;3.50;;;;;;;13.24;100.00;99953.59;10103165;29;20489;-91
2023/07/05 06:24:28;;;;;;;4.88;3.13;;;;;;;14.07;100.00;100051.03;10112183;29;20032;-88
2023/07/05 06:29:29;;;;;;;3.90;2.38;;;;;;;12.79;100.00;99803.84;10056986;29;20047;-92
2023/07/05 06:34:30;;;;;;;4.85;2.20;;;;;;;13.31;100.00;99902.41;10078835;29;20462;-94
2023/07/05 06:39:30;;;;;;;4.47;2.15;;;;;;;13.48;100.00;99885.31;10130948;29;20056;-91
2023/07/05 06:44:31;;;;;;;4.43;2.72;;;;;;;14.06;100.00;99947.81;10059679;29;20069;-93
2023/07/05 06:49:32;;;;;;;5.07;2.25;;;;;;;13.65;100.00;99870.97;10061289;29;20033;-92
2023/07/05 06:54:32;;;;;;;3.70;2.00;;;;;;;13.79;100.00;99843.38;10060717;29;20029;-93
2023/07/05 06:59:33;;;;;;;5.88;2.25;;;;;;;14.48;100.00;99914.75;10055251;29;20045;-92
2023/07/05 07:04:33;;;;;;;4.65;2.42;;;;;;;15.07;100.00;99979.63;10053573;29;20527;-94
2023/07/05 07:09:34;;;;;;;3.25;1.90;;;;;;;14.88;100.00;99896.59;10070326;29;20067;-94
2023/07/05 07:14:35;;;;;;;4.25;2.00;;;;;;;14.91;100.00;99857.16;10068321;29;20048;-92
2023/07/05 07:19:35;;;;;;;3.92;1.95;;;;;;;15.69;100.00;99964.53;10061526;29;20041;-93
2023/07/05 07:24:37;;;;;;;5.03;1.88;;;;;;;15.01;100.00;99847.81;10068063;29;20029;-87
2023/07/05 07:29:38;;;;;;;4.47;2.22;;;;;;;15.73;100.00;99955.28;10063138;29;20040;-88
2023/07/05 07:34:39;;;;;;;4.57;1.80;;;;;;;15.16;100.00;99856.94;10049584;29;20053;-88
2023/07/05 07:39:39;;;;;;;4.18;2.15;;;;;;;15.72;100.00;99992.50;10049600;29;20039;-86
2023/07/05 07:44:40;;;;;;;3.80;2.00;;;;;;;14.05;100.00;99780.09;10088467;29;20394;-87
2023/07/05 07:49:40;;;;;;;4.25;2.00;;;;;;;14.06;100.00;99811.38;10049697;29;20036;-87
2023/07/05 07:54:42;;;;;;;4.28;2.50;;;;;;;12.91;100.00;99704.78;10063405;29;20037;-89
2023/07/05 07:59:43;;;;;;;8.00;3.15;;;;;;;13.62;100.00;99837.53;10045381;29;20041;-91
2023/07/05 08:04:44;;;;;;;4.55;2.40;;;;;;;13.59;100.00;99788.38;10065838;29;20144;-87
2023/07/05 08:09:49;;;;;;;6.05;2.55;;;;;;;14.12;100.00;99879.38;10069265;29;20097;-86
2023/07/05 08:14:50;;;;;;;4.43;1.92;;;;;;;13.40;100.00;99850.03;10097643;29;20021;-90
2023/07/05 08:19:51;;;;;;;3.67;1.73;;;;;;;11.84;100.00;99782.16;10056435;29;20036;-88
2023/07/05 08:24:51;;;;;;;2.10;1.00;;;;;;;12.01;100.00;99877.50;10056619;29;20040;-93
2023/07/05 08:29:54;;;;;;;1.83;1.00;;;;;;;11.48;100.00;99801.78;10070448;29;20047;-92
2023/07/05 08:34:55;;;;;;;2.60;0.95;;;;;;;10.77;100.00;99650.75;10096855;29;20030;-89
2023/07/05 08:39:55;;;;;;;1.80;0.90;;;;;;;11.44;100.00;99698.72;10072739;29;20051;-89
2023/07/05 08:45:04;;;;;;;1.15;0.70;;;;;;;12.58;100.00;99817.88;10084623;29;20071;-93
2023/07/05 08:50:16;;;;;;;1.25;0.60;;;;;;;13.02;100.00;99898.84;10093704;29;20052;-92
2023/07/05 08:55:21;;;;;;;0.70;0.30;;;;;;;11.43;100.00;99668.69;10064059;29;20041;-92
2023/07/05 09:00:47;;;;;;;1.10;0.40;;;;;;;10.22;100.00;99507.75;10057993;29;20584;-91
2023/07/05 09:05:55;;;;;;;1.67;0.57;;;;;;;10.99;100.00;99645.63;10048790;29;20043;-91
2023/07/05 09:11:04;;;;;;;3.13;0.60;;;;;;;10.52;100.00;99539.72;10073834;29;20072;-89
2023/07/05 09:16:14;;;;;;;1.75;0.60;;;;;;;12.18;100.00;99777.78;10079815;29;20461;-87
2023/07/05 09:21:34;;;;;;;4.50;0.90;;;;;;;11.17;100.00;99589.03;10105193;29;20048;-92
2023/07/05 09:26:43;;;;;;;1.17;0.63;;;;;;;11.27;100.00;99597.19;10081705;29;20052;-88
2023/07/05 09:31:44;;;;;;;2.35;0.85;;;;;;;10.41;100.00;99472.97;10073939;29;20100;-92
2023/07/05 09:36:45;;;;;;;2.33;0.65;;;;;;;10.57;100.00;99534.19;10041607;29;20033;-88
2023/07/05 09:41:56;;;;;;;3.60;0.90;;;;;;;9.54;100.00;99355.34;10061836;29;20048;-92
2023/07/05 09:46:57;;;;;;;4.53;0.93;;;;;;;10.26;100.00;99454.63;10035422;29;20056;-88
2023/07/05 09:51:59;;;;;;;1.88;0.88;;;;;;;9.78;100.00;99333.47;10061851;29;20036;-90
2023/07/05 09:57:04;;;;;;;7.97;0.93;;;;;;;11.28;100.00;99548.44;10088589;29;20040;-85
2023/07/05 10:02:12;;;;;;;3.22;0.90;;;;;;;11.99;100.00;99670.94;10103509;29;20025;-89
2023/07/05 10:07:21;;;;;;;2.50;0.88;;;;;;;10.73;100.00;99501.03;10109648;29;20025;-93
2023/07/05 10:12:23;;;;;;;2.75;0.57;;;;;;;10.47;100.00;99455.28;10078838;29;20482;-90
2023/07/05 10:17:24;;;;;;;2.55;0.93;;;;;;;11.56;100.00;99612.91;10079037;29;20184;-87
2023/07/05 10:22:32;;;;;;;5.10;1.10;;;;;;;11.60;100.00;99599.38;10089377;29;20061;-87
2023/07/05 10:27:34;;;;;;;4.03;0.90;;;;;;;11.22;100.00;99549.59;10093531;29;20083;-87
2023/07/05 10:32:36;;;;;;;2.20;0.85;;;;;;;12.34;100.00;99670.78;10095396;29;20081;-85
2023/07/05 10:37:38;;;;;;;4.38;0.90;;;;;;;13.23;100.00;99795.25;10090229;29;20040;-86
2023/07/05 10:42:50;;;;;;;11.95;2.05;;;;;;;13.49;100.00;99833.59;10104658;29;20045;-84
2023/07/05 10:47:53;;;;;;;6.97;1.05;;;;;;;13.66;100.00;99820.06;10088364;29;20386;-86
2023/07/05 10:53:05;;;;;;;7.55;1.67;;;;;;;12.81;100.00;99683.66;10103222;29;20500;-85
2023/07/05 10:58:10;;;;;;;3.03;1.00;;;;;;;13.08;100.00;99696.81;10099325;29;20442;-92
2023/07/05 11:03:24;;;;;;;9.68;2.25;;;;;;;13.15;100.00;99723.22;10106308;29;20029;-85
2023/07/05 11:08:26;;;;;;;6.22;0.88;;;;;;;14.00;100.00;99820.91;10109894;29;20043;-85
2023/07/05 11:13:28;;;;;;;6.13;1.10;;;;;;;14.54;100.00;99902.44;10124486;29;20040;-86
2023/07/05 11:18:28;;;;;;;6.78;1.90;;;;;;;13.43;100.00;99725.00;10124376;29;20048;-87
2023/07/05 11:23:44;;;;;;;6.43;0.90;;;;;;;14.73;100.00;99972.47;10116873;29;20453;-92
2023/07/05 11:28:44;;;;;;;3.28;1.17;;;;;;;12.91;100.00;99679.94;10118552;29;20032;-88
2023/07/05 11:33:45;;;;;;;7.43;1.33;;;;;;;14.34;100.00;99917.47;10098506;29;20529;-87
2023/07/05 11:38:45;;;;;;;8.70;1.77;;;;;;;15.03;100.00;100017.41;10105593;29;20051;-86
2023/07/05 11:44:00;;;;;;;6.82;1.40;;;;;;;14.33;100.00;99813.38;10110764;29;20056;-86
2023/07/05 11:49:29;;;;;;;4.85;0.95;;;;;;;15.83;100.00;100023.63;10087429;29;20045;-86
2023/07/05 11:54:35;;;;;;;4.70;0.90;;;;;;;15.14;100.00;99873.88;10086540;29;20065;-87
2023/07/05 11:59:38;;;;;;;2.22;0.60;;;;;;;16.21;100.00;100076.13;10099850;29;20100;-86
2023/07/05 12:04:39;;;;;;;3.72;1.15;;;;;;;14.54;100.00;99966.16;10102942;29;20024;-86
2023/07/05 12:09:40;;;;;;;0.85;0.50;;;;;;;13.68;100.00;99933.16;10082688;29;20029;-95
2023/07/05 12:14:42;;;;;;;2.35;0.90;;;;;;;14.20;100.00;100158.28;10120252;29;20025;-96
2023/07/05 12:19:44;;;;;;;1.30;0.70;;;;;;;14.06;100.00;100099.22;10074542;29;20067;-93
2023/07/05 12:24:48;;;;;;;2.88;0.70;;;;;;;13.82;100.00;99970.00;10084607;29;20108;-92
2023/07/05 12:29:51;;;;;;;2.67;0.60;;;;;;;13.96;100.00;100053.13;10112836;29;20036;-95
2023/07/05 12:35:10;;;;;;;4.63;1.23;;;;;;;13.42;100.00;100104.09;10124886;29;20059;-87
2023/07/05 12:40:18;;;;;;;3.70;0.93;;;;;;;11.66;100.00;99987.75;10121185;29;20045;-87
2023/07/05 12:45:24;;;;;;;5.00;1.20;;;;;;;10.66;100.00;99992.13;10089012;29;20041;-87
2023/07/05 12:50:25;;;;;;;5.88;1.40;;;;;;;10.87;100.00;100074.72;10098884;29;20052;-94
2023/07/05 12:55:31;;;;;;;4.28;0.98;;;;;;;10.33;100.00;100025.72;10014304;29;20032;-95
2023/07/05 13:00:32;;;;;;;2.75;0.57;;;;;;;10.14;100.00;100012.47;10102171;29;20512;-92
2023/07/05 13:05:36;;;;;;;5.28;1.42;;;;;;;10.25;100.00;100077.41;10079661;29;20037;-94
2023/07/05 13:10:36;;;;;;;7.18;1.40;;;;;;;10.88;100.00;100159.00;10103069;29;20068;-93
2023/07/05 13:15:40;;;;;;;8.10;1.67;;;;;;;10.63;100.00;100097.31;10099919;29;20036;-92
2023/07/05 13:20:41;;;;;;;6.22;1.27;;;;;;;11.24;100.00;100203.09;10063783;29;20049;-88
2023/07/05 13:25:44;;;;;;;4.22;1.30;;;;;;;11.12;100.00;100156.56;10066241;29;20043;-87
2023/07/05 13:30:50;;;;;;;2.58;0.93;;;;;;;12.25;100.00;100300.63;10090859;29;20032;-86
2023/07/05 13:35:51;;;;;;;7.00;1.30;;;;;;;11.71;100.00;100213.00;10070064;29;20157;-95
2023/07/05 13:41:03;;;;;;;7.32;1.38;;;;;;;11.68;100.00;100244.72;10063349;29;20407;-96
2023/07/05 13:46:03;;;;;;;2.03;0.82;;;;;;;11.58;100.00;100232.88;10067132;29;20051;-87
2023/07/05 13:51:04;;;;;;;5.80;1.08;;;;;;;11.41;100.00;100228.47;10114042;29;20045;-88
2023/07/05 13:56:05;;;;;;;5.80;1.20;;;;;;;11.24;100.00;100249.94;10092271;29;20029;-86
2023/07/05 14:01:08;;;;;;;6.32;1.60;;;;;;;12.51;100.00;100491.09;10107162;29;20410;-87
2023/07/05 14:06:15;;;;;;;7.43;1.23;;;;;;;10.98;100.00;100282.97;10101576;29;20033;-88
2023/07/05 14:11:19;;;;;;;5.38;1.08;;;;;;;12.11;100.00;100459.59;10104938;29;20037;-93
2023/07/05 14:16:21;;;;;;;4.03;0.82;;;;;;;11.51;100.00;100413.16;10059685;29;20028;-93
2023/07/05 14:21:30;;;;;;;7.40;1.10;;;;;;;12.22;100.00;100541.31;10085454;29;20047;-88
2023/07/05 14:26:32;;;;;;;7.88;1.50;;;;;;;11.00;100.00;100366.16;10100523;29;20056;-86
2023/07/05 14:31:38;;;;;;;4.22;1.25;;;;;;;11.24;100.00;100420.78;10069568;29;20041;-96
2023/07/05 14:36:39;;;;;;;;;;;;;;;12.64;100.00;100631.38;9993791;29;20432;-95
2023/07/05 14:41:40;;;;;;;5.28;1.30;;;;;;;11.00;100.00;100355.13;10073997;29;19923;-94
2023/07/05 14:46:40;;;;;;;5.35;1.27;;;;;;;11.89;100.00;100504.81;10076450;29;20109;-95
2023/07/05 14:51:51;;;;;;;7.22;1.05;;;;;;;13.34;100.00;100688.91;10019669;29;20079;-89
2023/07/05 14:56:53;;;;;;;14.38;2.10;;;;;;;13.07;100.00;100584.16;10037554;29;20032;-89
2023/07/05 15:01:54;;;;;;;4.60;1.00;;;;;;;13.59;100.00;100602.31;10058161;29;20075;-88
2023/07/05 15:06:54;;;;;;;3.33;1.17;;;;;;;13.23;100.00;100537.94;10071889;29;20124;-86
2023/07/05 15:11:56;;;;;;;3.97;1.17;;;;;;;13.88;100.00;100657.81;10069899;29;20040;-92
2023/07/05 15:16:56;;;;;;;6.63;1.55;;;;;;;13.64;100.00;100576.56;10071762;29;20434;-87
2023/07/05 15:21:57;;;;;;;4.90;1.25;;;;;;;13.49;100.00;100567.22;10067062;29;20060;-86
2023/07/05 15:26:57;;;;;;;3.17;1.25;;;;;;;13.72;100.00;100623.88;10083520;29;20081;-92
2023/07/05 15:31:58;;;;;;;13.15;2.38;;;;;;;13.56;100.00;100651.81;10068220;29;20033;-87
2023/07/05 15:36:58;;;;;;;7.45;2.75;;;;;;;13.19;100.00;100647.41;10068767;29;20066;-86
2023/07/05 15:41:59;;;;;;;8.18;2.53;;;;;;;12.46;100.00;100562.88;10044317;29;20486;-88
2023/07/05 15:46:59;;;;;;;7.20;1.70;;;;;;;12.43;100.00;100519.25;10067137;29;20609;-88
2023/07/05 15:52:00;;;;;;;10.55;3.22;;;;;;;15.13;100.00;100723.41;10058092;29;20033;-88
2023/07/05 15:57:00;;;;;;;14.63;7.65;;;;;;;16.17;100.00;100801.91;10072575;29;20033;-88
2023/07/05 16:02:04;;;;;;;4.38;2.63;;;;;;;16.14;100.00;100598.63;10076241;29;20052;-86
2023/07/05 16:07:05;;;;;;;8.27;4.95;;;;;;;17.83;100.00;100636.75;10074400;29;20025;-90
2023/07/05 16:12:08;;;;;;;6.82;2.85;;;;;;;15.99;100.00;100603.56;10098385;29;20040;-94
2023/07/05 16:17:11;;;;;;;6.53;1.73;;;;;;;15.46;100.00;100738.41;10055080;29;20104;-90
2023/07/05 16:22:14;;;;;;;8.02;2.85;;;;;;;15.65;100.00;100759.91;10087510;29;20068;-92
2023/07/05 16:27:15;;;;;;;9.63;3.22;;;;;;;15.25;100.00;100759.09;10102921;29;20116;-93
2023/07/05 16:32:16;;;;;;;10.18;4.63;;;;;;;14.53;100.00;100681.91;10099285;29;20089;-94
2023/07/05 16:37:16;;;;;;;9.98;2.08;;;;;;;15.80;100.00;100906.91;10087489;29;20052;-91
2023/07/05 16:42:17;;;;;;;6.72;1.95;;;;;;;13.96;100.00;100628.75;10099876;29;20043;-91
2023/07/05 16:47:17;;;;;;;8.88;4.03;;;;;;;15.16;100.00;100821.84;10083767;29;20040;-90
2023/07/05 16:52:18;;;;;;;7.05;1.30;;;;;;;14.99;100.00;100820.25;10101236;29;20045;-91
2023/07/05 16:57:18;;;;;;;4.70;1.10;;;;;;;15.06;100.00;100729.28;10084327;29;20032;-92
2023/07/05 17:02:20;;;;;;;3.97;0.95;;;;;;;15.11;100.00;100742.25;10080128;29;20032;-91
2023/07/05 17:07:20;;;;;;;4.25;1.20;;;;;;;15.35;100.00;100753.47;10097546;29;20036;-90
2023/07/05 17:12:21;;;;;;;6.38;1.38;;;;;;;15.13;100.00;100735.34;10091464;29;20036;-87
2023/07/05 17:17:30;;;;;;;4.15;1.30;;;;;;;14.89;100.00;100717.75;10081952;29;20096;-89
2023/07/05 17:22:31;;;;;;;4.68;1.40;;;;;;;15.26;100.00;100821.78;10091225;29;20049;-87
2023/07/05 17:27:31;;;;;;;3.05;1.15;;;;;;;14.84;100.00;100751.03;10028029;29;20119;-88
2023/07/05 17:32:33;;;;;;;4.35;1.30;;;;;;;16.23;100.00;100968.22;10075484;29;20140;-87
2023/07/05 17:37:35;;;;;;;3.83;1.25;;;;;;;16.10;100.00;100980.81;10068047;29;20040;-87
2023/07/05 17:42:37;;;;;;;4.50;1.40;;;;;;;14.28;100.00;100739.09;10045515;29;20033;-89
2023/07/05 17:47:42;;;;;;;7.75;1.88;;;;;;;15.04;100.00;100935.84;10067582;29;20040;-88
2023/07/05 17:52:43;;;;;;;8.98;2.17;;;;;;;13.72;100.00;100747.50;10042572;29;20399;-88
2023/07/05 17:57:45;;;;;;;7.43;1.77;;;;;;;13.76;100.00;100723.72;10059444;29;20045;-87
2023/07/05 18:02:48;;;;;;;6.43;1.70;;;;;;;13.82;100.00;100730.91;10107565;29;20499;-87
2023/07/05 18:07:48;;;;;;;6.53;1.98;;;;;;;14.24;100.00;100806.38;10079573;29;20036;-85
2023/07/05 18:12:49;;;;;;;3.85;1.60;;;;;;;13.57;100.00;100697.75;10068612;29;20489;-87
2023/07/05 18:17:51;;;;;;;4.43;1.80;;;;;;;15.19;100.00;101016.19;10097192;29;20105;-88
2023/07/05 18:22:52;;;;;;;6.55;1.52;;;;;;;14.38;100.00;100862.84;10044449;29;20042;-93
2023/07/05 18:28:02;;;;;;;4.57;1.10;;;;;;;15.42;100.00;101042.50;10030637;29;20033;-86
2023/07/05 18:33:02;;;;;;;3.67;1.17;;;;;;;13.40;100.00;100737.59;10075543;29;20037;-95
2023/07/05 18:38:05;;;;;;;3.38;1.30;;;;;;;13.16;100.00;100717.09;10063206;29;20052;-87
2023/07/05 18:43:06;;;;;;;2.35;1.20;;;;;;;14.37;100.00;100927.66;10055582;29;20401;-88
2023/07/05 18:48:16;;;;;;;3.60;1.75;;;;;;;13.90;100.00;100874.25;10026252;29;20112;-90
2023/07/05 18:53:26;;;;;;;3.38;1.42;;;;;;;13.89;100.00;100911.34;10013505;29;20074;-90
2023/07/05 18:58:28;;;;;;;2.85;1.30;;;;;;;13.72;100.00;100872.88;10034177;29;20162;-88
2023/07/05 19:03:28;;;;;;;4.53;1.45;;;;;;;13.56;100.00;100889.69;10084454;29;20037;-87
2023/07/05 19:08:32;;;;;;;6.65;1.60;;;;;;;13.84;100.00;101016.47;10034337;29;20037;-89
2023/07/05 19:13:40;;;;;;;2.03;1.23;;;;;;;12.88;100.00;100849.13;10063615;29;20037;-95
2023/07/05 19:18:41;;;;;;;3.13;1.00;;;;;;;13.83;100.00;101039.75;10018326;29;20041;-96
2023/07/05 19:23:44;;;;;;;4.30;1.08;;;;;;;13.09;100.00;100942.06;10039523;29;20056;-96
2023/07/05 19:28:51;;;;;;;1.90;1.10;;;;;;;14.02;100.00;101103.72;10023475;29;20056;-96
2023/07/05 19:33:52;;;;;;;4.07;1.75;;;;;;;13.89;100.00;101157.66;10036616;29;20558;-87
2023/07/05 19:38:53;;;;;;;3.63;1.58;;;;;;;13.71;100.00;101163.66;10082737;29;20080;-86
2023/07/05 19:43:54;;;;;;;3.58;1.50;;;;;;;11.80;100.00;100837.41;10077015;29;20048;-87
2023/07/05 19:48:59;;;;;;;2.53;1.95;;;;;;;12.07;100.00;100914.66;10117186;29;20029;-96
2023/07/05 19:54:00;;;;;;;2.03;1.52;;;;;;;12.71;100.00;101051.81;10108870;29;20474;-87
2023/07/05 19:59:01;;;;;;;4.00;1.45;;;;;;;12.15;100.00;101017.34;10086061;29;20132;-86
2023/07/05 20:04:02;;;;;;;4.85;1.92;;;;;;;13.21;100.00;101168.56;10085472;29;20028;-86
2023/07/05 20:09:05;;;;;;;5.57;1.30;;;;;;;12.10;100.00;101031.94;10083759;29;20493;-95
2023/07/05 20:14:06;;;;;;;5.13;1.60;;;;;;;11.30;100.00;100935.88;10113086;29;20067;-93
2023/07/05 20:19:07;;;;;;;6.22;2.00;;;;;;;12.16;100.00;101077.00;10071220;29;20060;-88
2023/07/05 20:24:07;;;;;;;4.55;2.03;;;;;;;11.58;100.00;101004.88;10110934;29;20097;-91
2023/07/05 20:29:08;;;;;;;5.35;2.10;;;;;;;10.95;100.00;100930.78;10077159;29;20096;-92
2023/07/05 20:34:09;;;;;;;6.82;3.15;;;;;;;12.04;100.00;101124.88;10079267;29;20029;-91
2023/07/05 20:39:09;;;;;;;7.35;2.42;;;;;;;11.05;100.00;100986.00;10096889;29;20044;-91
2023/07/05 20:44:10;;;;;;;5.65;1.90;;;;;;;11.46;100.00;101069.25;10082214;29;20040;-91
2023/07/05 20:49:12;;;;;;;3.47;1.92;;;;;;;11.34;100.00;101060.25;10079132;29;20155;-90
2023/07/05 20:54:15;;;;;;;8.70;2.60;;;;;;;10.63;100.00;100972.75;10110738;29;20033;-90
2023/07/05 20:59:17;;;;;;;8.65;2.40;;;;;;;10.25;100.00;100938.56;10093570;29;20088;-90
2023/07/05 21:04:18;;;;;;;3.88;2.20;;;;;;;10.67;100.00;101017.97;10054344;29;20036;-90
2023/07/05 21:09:19;;;;;;;8.48;2.78;;;;;;;10.67;100.00;101028.97;10093767;29;20032;-90
2023/07/05 21:14:20;;;;;;;5.80;2.08;;;;;;;11.29;100.00;101167.69;10070545;29;20040;-91
2023/07/05 21:19:21;;;;;;;7.22;2.28;;;;;;;10.75;100.00;101051.66;10087664;29;20041;-91
2023/07/05 21:24:21;;;;;;;8.18;2.47;;;;;;;10.95;100.00;101085.03;10084225;29;20465;-91
2023/07/05 21:29:22;;;;;;;4.60;2.25;;;;;;;9.79;100.00;100913.03;10093712;29;20024;-91
2023/07/05 21:34:23;;;;;;;6.15;2.35;;;;;;;9.94;100.00;100953.69;10088735;29;20028;-91
2023/07/05 21:39:25;;;;;;;5.78;2.17;;;;;;;10.98;100.00;101156.16;10104584;29;20048;-91
2023/07/05 21:44:25;;;;;;;6.45;2.03;;;;;;;10.50;100.00;101074.97;10060864;29;20051;-91
2023/07/05 21:49:26;;;;;;;9.15;2.85;;;;;;;10.81;100.00;101111.25;10084192;29;20040;-91
2023/07/05 21:54:27;;;;;;;5.50;2.70;;;;;;;10.64;100.00;101117.56;10091792;29;20036;-92
2023/07/05 21:59:28;;;;;;;5.75;2.30;;;;;;;9.84;100.00;100990.13;10061610;29;20058;-91
2023/07/05 22:04:30;;;;;;;3.42;2.13;;;;;;;10.46;100.00;101109.56;10077416;29;20088;-91
2023/07/05 22:09:31;;;;;;;5.60;1.95;;;;;;;10.37;100.00;101120.13;10092542;29;20039;-91
2023/07/05 22:14:32;;;;;;;5.63;2.42;;;;;;;10.78;100.00;101203.47;10083672;29;20093;-90
2023/07/05 22:19:33;;;;;;;8.07;2.20;;;;;;;9.83;100.00;101103.09;10094645;29;20052;-91
2023/07/05 22:24:37;;;;;;;8.48;2.45;;;;;;;10.29;100.00;101179.16;10058442;29;20145;-91
2023/07/05 22:29:37;;;;;;;4.50;3.00;;;;;;;9.90;100.00;101104.63;10077775;29;20036;-92
2023/07/05 22:34:38;;;;;;;6.72;2.70;;;;;;;10.04;100.00;101149.16;10075586;29;20028;-91
2023/07/05 22:39:43;;;;;;;6.05;2.63;;;;;;;10.31;100.00;101222.94;10100302;29;20056;-90
2023/07/05 22:44:45;;;;;;;4.63;3.03;;;;;;;9.10;100.00;101020.22;10089770;29;20058;-91
2023/07/05 22:49:45;;;;;;;6.65;3.13;;;;;;;9.86;100.00;101165.84;10074109;29;20374;-91
2023/07/05 22:54:52;;;;;;;5.20;3.20;;;;;;;10.44;100.00;101268.63;10099894;29;20120;-92